Time;durP1;ratioP1;P1;durP2;ratioP2;P2;SDS_P1;SDS_P2;PMS_P1;PMS_P2;Temp;Humidity;BMP_temperature;BMP_pressure;BME280_temperature;BME280_humidity;BME280_pressure;Samples;Min_cycle;Max_cycle;Signal;HPM_P1;HPM_P2
2023/11/14 00:02:12;;;;;;;7.90;6.20;;;;;;;5.00;100.00;97027.27;110147;1242;72438;-64
2023/11/14 00:04:47;;;;;;;8.80;6.50;;;;;;;5.03;100.00;97027.45;110257;1240;68363;-65
2023/11/14 00:07:17;;;;;;;8.80;7.00;;;;;;;5.03;100.00;97029.30;110254;1244;69167;-65
2023/11/14 00:09:47;;;;;;;7.90;6.30;;;;;;;5.06;100.00;97021.24;110286;1240;60452;-66
2023/11/14 00:12:21;;;;;;;9.80;6.60;;;;;;;5.06;100.00;97003.73;110474;1241;60547;-65
2023/11/14 00:14:51;;;;;;;16.90;13.00;;;;;;;5.05;100.00;97003.64;110459;1241;72842;-65
2023/11/14 00:17:22;;;;;;;12.30;9.90;;;;;;;5.04;100.00;97009.74;110470;1241;69256;-64
2023/11/14 00:19:53;;;;;;;10.70;8.80;;;;;;;5.02;100.00;97010.90;110376;1241;69647;-64
2023/11/14 00:22:23;;;;;;;10.10;8.30;;;;;;;5.00;100.00;97008.95;110322;1242;60549;-64
2023/11/14 00:24:54;;;;;;;10.10;7.40;;;;;;;5.00;100.00;97001.86;110270;1244;60486;-65
2023/11/14 00:27:26;;;;;;;7.80;6.10;;;;;;;5.00;100.00;97009.83;110255;1242;70690;-65
2023/11/14 00:29:58;;;;;;;8.00;5.90;;;;;;;5.00;100.00;97006.89;110318;1244;69228;-65
2023/11/14 00:32:29;;;;;;;8.70;6.10;;;;;;;4.99;100.00;97006.95;110288;1244;68287;-65
2023/11/14 00:35:00;;;;;;;8.00;6.20;;;;;;;4.99;100.00;97006.58;110359;1240;60467;-65
2023/11/14 00:37:31;;;;;;;7.70;6.20;;;;;;;4.99;100.00;97003.67;110362;1241;60489;-65
2023/11/14 00:40:03;;;;;;;8.40;6.50;;;;;;;4.99;100.00;97003.83;110266;1247;72198;-65
2023/11/14 00:42:34;;;;;;;10.20;6.20;;;;;;;4.99;100.00;97008.48;110307;1240;69416;-65
2023/11/14 00:45:05;;;;;;;9.20;6.20;;;;;;;5.01;100.00;97004.06;110469;1241;69373;-67
2023/11/14 00:47:36;;;;;;;7.70;5.40;;;;;;;5.02;100.00;97002.61;110395;1243;60485;-67
2023/11/14 00:50:07;;;;;;;6.60;5.80;;;;;;;5.04;100.00;97010.45;110333;1240;60517;-66
2023/11/14 00:52:38;;;;;;;7.30;5.00;;;;;;;5.06;100.00;97010.36;110340;1244;72149;-65
2023/11/14 00:55:09;;;;;;;7.00;5.40;;;;;;;5.08;100.00;97013.36;110344;1241;68302;-65
2023/11/14 00:57:42;;;;;;;8.90;5.60;;;;;;;5.08;100.00;97017.48;110301;1242;69648;-65
2023/11/14 01:00:17;;;;;;;7.20;5.00;;;;;;;5.08;100.00;97014.36;110514;1240;60481;-65
2023/11/14 01:02:47;;;;;;;8.70;5.80;;;;;;;5.09;100.00;97006.91;110289;1242;60945;-65
2023/11/14 01:05:23;;;;;;;7.40;5.20;;;;;;;5.08;100.00;96998.64;110264;1240;71466;-66
2023/11/14 01:07:53;;;;;;;6.60;4.40;;;;;;;5.09;100.00;96988.89;110337;1242;69206;-66
2023/11/14 01:10:24;;;;;;;7.60;5.10;;;;;;;5.10;100.00;96973.45;110300;1240;69214;-66
2023/11/14 01:12:59;;;;;;;8.30;6.00;;;;;;;5.11;100.00;96962.73;110417;1244;60547;-66
2023/11/14 01:15:31;;;;;;;8.30;5.30;;;;;;;5.09;100.00;96957.14;110415;1246;59894;-67
2023/11/14 01:18:03;;;;;;;7.40;5.80;;;;;;;5.08;100.00;96952.86;110571;1242;72192;-68
2023/11/14 01:20:38;;;;;;;9.40;6.60;;;;;;;5.08;100.00;96949.77;110442;1241;68274;-65
2023/11/14 01:23:16;;;;;;;8.10;5.80;;;;;;;5.07;100.00;96951.21;110261;1242;69274;-67
2023/11/14 01:25:47;;;;;;;8.40;5.90;;;;;;;5.06;100.00;96949.20;110370;1241;60542;-67
2023/11/14 01:28:19;;;;;;;8.40;5.80;;;;;;;5.06;100.00;96951.75;110311;1241;60480;-65
2023/11/14 01:30:49;;;;;;;7.80;5.50;;;;;;;5.07;100.00;96949.83;110212;1240;72430;-65
2023/11/14 01:33:21;;;;;;;8.40;6.20;;;;;;;5.07;99.94;96946.86;110100;1244;68297;-66
2023/11/14 01:35:51;;;;;;;6.30;5.40;;;;;;;5.08;99.99;96944.42;110223;1240;68706;-66
2023/11/14 01:38:23;;;;;;;6.60;5.00;;;;;;;5.07;99.83;96936.19;110269;1242;60431;-65
2023/11/14 01:40:55;;;;;;;6.50;5.00;;;;;;;5.05;100.00;96934.38;110493;1241;60489;-65
2023/11/14 01:43:29;;;;;;;5.80;4.60;;;;;;;5.05;100.00;96935.95;110348;1241;71236;-65
2023/11/14 01:46:02;;;;;;;6.10;5.20;;;;;;;5.03;100.00;96942.96;110342;1241;69279;-65
2023/11/14 01:48:37;;;;;;;8.20;5.90;;;;;;;5.02;100.00;96944.77;110306;1240;68535;-65
2023/11/14 01:51:11;;;;;;;5.70;4.10;;;;;;;5.01;100.00;96942.96;110310;1241;60611;-65
2023/11/14 01:53:46;;;;;;;8.00;5.20;;;;;;;5.00;100.00;96945.77;110252;1243;60492;-64
2023/11/14 01:56:21;;;;;;;6.10;4.70;;;;;;;4.99;100.00;96947.02;110292;1244;71529;-64
2023/11/14 01:58:56;;;;;;;7.60;5.20;;;;;;;4.97;100.00;96940.05;110194;1244;69344;-66
2023/11/14 02:01:29;;;;;;;8.20;5.70;;;;;;;4.95;100.00;96936.70;110243;1240;68602;-65
2023/11/14 02:04:08;;;;;;;8.10;5.70;;;;;;;4.94;100.00;96931.07;110224;1244;60611;-64
2023/11/14 02:06:38;;;;;;;6.80;5.20;;;;;;;4.92;100.00;96927.39;110304;1240;60553;-64
2023/11/14 02:09:11;;;;;;;7.20;5.50;;;;;;;4.90;100.00;96929.77;110324;1244;72214;-65
2023/11/14 02:11:44;;;;;;;7.00;5.00;;;;;;;4.88;100.00;96928.69;110435;1241;69227;-66
2023/11/14 02:14:15;;;;;;;5.50;4.20;;;;;;;4.87;100.00;96930.28;110426;1241;69102;-66
2023/11/14 02:16:49;;;;;;;7.70;4.90;;;;;;;4.88;100.00;96922.80;110283;1247;60999;-66
2023/11/14 02:19:19;;;;;;;6.80;4.40;;;;;;;4.89;100.00;96916.14;110292;1243;60431;-64
2023/11/14 02:21:52;;;;;;;5.50;4.40;;;;;;;4.92;100.00;96916.17;110464;1240;72196;-64
2023/11/14 02:24:22;;;;;;;7.90;4.70;;;;;;;4.94;100.00;96915.71;110265;1242;68511;-64
2023/11/14 02:26:52;;;;;;;8.10;5.10;;;;;;;4.95;100.00;96915.15;110358;1247;69657;-64
2023/11/14 02:29:26;;;;;;;7.40;4.70;;;;;;;4.97;100.00;96915.04;110361;1241;60492;-64
2023/11/14 02:31:58;;;;;;;6.50;4.60;;;;;;;4.99;100.00;96919.23;110300;1241;60475;-65
2023/11/14 02:34:29;;;;;;;7.00;4.70;;;;;;;5.02;100.00;96916.45;110340;1241;72273;-64
2023/11/14 02:37:01;;;;;;;6.40;4.70;;;;;;;5.05;100.00;96909.73;110349;1241;69104;-65
2023/11/14 02:39:35;;;;;;;6.50;4.70;;;;;;;5.06;100.00;96908.95;110456;1241;69178;-64
2023/11/14 02:42:07;;;;;;;7.40;5.70;;;;;;;5.07;100.00;96907.84;110467;1241;60538;-64
2023/11/14 02:44:41;;;;;;;6.30;4.70;;;;;;;5.09;100.00;96901.33;110394;1242;60470;-64
2023/11/14 02:47:16;;;;;;;6.80;4.80;;;;;;;5.11;100.00;96899.83;110347;1239;72760;-65
2023/11/14 02:50:05;;;;;;;6.40;4.80;;;;;;;5.12;100.00;96899.61;110396;1241;68417;-65
2023/11/14 02:52:37;;;;;;;6.00;4.80;;;;;;;5.13;100.00;96898.55;110223;1244;69674;-65
2023/11/14 02:55:11;;;;;;;6.80;4.90;;;;;;;5.12;100.00;96897.88;110428;1241;60541;-65
2023/11/14 02:57:44;;;;;;;6.30;4.60;;;;;;;5.11;100.00;96894.63;110447;1241;60434;-65
2023/11/14 03:00:17;;;;;;;6.20;4.90;;;;;;;5.12;100.00;96891.69;110439;1240;72226;-65
2023/11/14 03:02:49;;;;;;;6.50;4.90;;;;;;;5.12;99.79;96887.53;110427;1242;69232;-65
2023/11/14 03:05:21;;;;;;;6.00;4.40;;;;;;;5.11;99.80;96891.38;110232;1242;69300;-65
2023/11/14 03:07:57;;;;;;;7.00;5.20;;;;;;;5.10;99.96;96902.98;110393;1242;60489;-65
2023/11/14 03:10:37;;;;;;;5.80;4.20;;;;;;;5.10;100.00;96906.46;110343;1241;60470;-65
2023/11/14 03:13:11;;;;;;;5.70;4.60;;;;;;;5.12;100.00;96908.09;110296;1242;71081;-66
2023/11/14 03:15:44;;;;;;;6.60;5.30;;;;;;;5.13;100.00;96911.81;110317;1242;69165;-64
2023/11/14 03:18:15;;;;;;;5.20;4.00;;;;;;;5.15;100.00;96920.39;110405;1241;69278;-66
2023/11/14 03:20:46;;;;;;;;;;;;;;;5.16;100.00;96930.64;110408;1241;60537;-67
2023/11/14 03:23:31;;;;;;;4.30;3.80;;;;;;;5.18;100.00;96927.77;110586;1240;60514;-65
2023/11/14 03:26:02;;;;;;;4.80;3.70;;;;;;;5.21;100.00;96922.95;110477;1242;71440;-65
2023/11/14 03:28:38;;;;;;;5.30;4.10;;;;;;;5.24;100.00;96921.36;110450;1239;69078;-65
2023/11/14 03:31:09;;;;;;;6.10;4.30;;;;;;;5.27;100.00;96922.20;110506;1242;69324;-65
2023/11/14 03:33:39;;;;;;;6.20;3.80;;;;;;;5.32;100.00;96922.48;110504;1241;60601;-67
2023/11/14 03:36:12;;;;;;;5.60;4.30;;;;;;;5.34;100.00;96916.64;110524;1241;60465;-66
2023/11/14 03:38:46;;;;;;;6.70;4.60;;;;;;;5.36;100.00;96917.19;110501;1241;72787;-66
2023/11/14 03:41:17;;;;;;;6.10;4.60;;;;;;;5.37;100.00;96914.39;110399;1240;69175;-66
2023/11/14 03:43:47;;;;;;;7.20;5.10;;;;;;;5.40;100.00;96911.94;110391;1241;69719;-65
2023/11/14 03:46:22;;;;;;;6.50;4.10;;;;;;;5.43;100.00;96903.00;110385;1242;60548;-65
2023/11/14 03:48:53;;;;;;;6.30;4.80;;;;;;;5.44;100.00;96896.52;110450;1241;60478;-64
2023/11/14 03:51:24;;;;;;;5.10;4.10;;;;;;;5.46;100.00;96887.92;110472;1241;71447;-66
2023/11/14 03:53:56;;;;;;;6.40;4.70;;;;;;;5.47;100.00;96880.95;110159;1242;68454;-66
2023/11/14 03:56:27;;;;;;;5.70;4.40;;;;;;;5.48;100.00;96870.70;110363;1243;68364;-65
2023/11/14 03:58:57;;;;;;;5.60;4.00;;;;;;;5.48;100.00;96864.12;110249;1242;60506;-66
2023/11/14 04:01:29;;;;;;;6.70;4.60;;;;;;;5.49;100.00;96863.05;110286;1241;60605;-66
2023/11/14 04:03:59;;;;;;;6.50;4.80;;;;;;;5.48;99.94;96865.14;110236;1240;72212;-66
2023/11/14 04:06:30;;;;;;;6.60;4.50;;;;;;;5.47;99.75;96871.07;110231;1240;69620;-65
2023/11/14 04:09:02;;;;;;;7.30;5.00;;;;;;;5.46;100.00;96887.38;110235;1240;68400;-66
2023/11/14 04:11:47;;;;;;;6.00;4.90;;;;;;;5.47;100.00;96892.52;110218;1243;60550;-65
2023/11/14 04:14:18;;;;;;;5.60;4.10;;;;;;;5.48;100.00;96891.59;110364;1241;60483;-63
2023/11/14 04:16:50;;;;;;;7.00;5.10;;;;;;;5.49;100.00;96892.88;110411;1239;72094;-64
2023/11/14 04:19:22;;;;;;;7.30;5.60;;;;;;;5.51;100.00;96881.41;110358;1240;69228;-65
2023/11/14 04:21:55;;;;;;;7.50;5.00;;;;;;;5.52;100.00;96878.92;110352;1242;69185;-65
2023/11/14 04:24:28;;;;;;;6.50;5.00;;;;;;;5.53;100.00;96868.13;110246;1242;60547;-64
2023/11/14 04:27:01;;;;;;;7.50;5.30;;;;;;;5.53;100.00;96862.23;110351;1241;60539;-66
2023/11/14 04:29:32;;;;;;;8.60;5.00;;;;;;;5.54;100.00;96860.27;110508;1241;71459;-66
2023/11/14 04:32:03;;;;;;;5.90;4.30;;;;;;;5.53;100.00;96861.70;110300;1242;68561;-66
2023/11/14 04:34:35;;;;;;;8.00;4.80;;;;;;;5.53;99.97;96858.92;110246;1242;69270;-66
2023/11/14 04:37:09;;;;;;;7.20;5.10;;;;;;;5.55;99.74;96856.26;110299;1242;60487;-66
2023/11/14 04:39:41;;;;;;;7.30;5.80;;;;;;;5.55;100.00;96854.69;110301;1241;60492;-66
2023/11/14 04:42:13;;;;;;;6.20;4.60;;;;;;;5.56;100.00;96845.13;110271;1242;72246;-64
2023/11/14 04:44:45;;;;;;;9.20;7.20;;;;;;;5.59;99.90;96842.88;110362;1242;69598;-65
2023/11/14 04:47:17;;;;;;;13.20;9.50;;;;;;;5.61;99.99;96841.88;110261;1244;69496;-66
2023/11/14 04:49:52;;;;;;;14.50;10.40;;;;;;;5.64;100.00;96835.66;110303;1242;60543;-65
2023/11/14 04:52:23;;;;;;;10.70;8.10;;;;;;;5.65;100.00;96825.37;110342;1241;60492;-65
2023/11/14 04:54:54;;;;;;;9.70;8.10;;;;;;;5.69;99.77;96814.79;110265;1240;71525;-66
2023/11/14 04:57:26;;;;;;;8.60;6.70;;;;;;;5.70;99.94;96812.15;110264;1242;69477;-65
2023/11/14 04:59:56;;;;;;;7.50;6.20;;;;;;;5.68;100.00;96804.95;110268;1242;69326;-65
2023/11/14 05:02:27;;;;;;;6.10;5.40;;;;;;;5.71;100.00;96797.22;110342;1241;60639;-65
2023/11/14 05:04:58;;;;;;;7.60;5.60;;;;;;;5.71;100.00;96795.98;110264;1242;60594;-64
2023/11/14 05:07:29;;;;;;;9.10;5.60;;;;;;;5.73;99.99;96796.36;110360;1241;72085;-64
2023/11/14 05:10:00;;;;;;;6.40;4.80;;;;;;;5.75;100.00;96801.23;110471;1241;69108;-67
2023/11/14 05:12:30;;;;;;;8.30;6.00;;;;;;;5.79;99.97;96805.31;110491;1241;69646;-66
2023/11/14 05:15:01;;;;;;;7.60;5.40;;;;;;;5.83;99.99;96809.54;110430;1241;60501;-65
2023/11/14 05:17:31;;;;;;;7.80;6.50;;;;;;;5.87;99.97;96806.17;110422;1248;60485;-66
2023/11/14 05:20:02;;;;;;;8.80;6.00;;;;;;;5.92;99.93;96802.10;110361;1241;72277;-66
2023/11/14 05:22:33;;;;;;;9.00;6.00;;;;;;;5.95;99.72;96798.77;110430;1240;68523;-65
2023/11/14 05:25:05;;;;;;;10.10;6.60;;;;;;;5.99;99.63;96802.20;110447;1240;68628;-66
2023/11/14 05:27:38;;;;;;;9.60;6.90;;;;;;;6.03;99.78;96809.54;110535;1239;60508;-65
2023/11/14 05:30:10;;;;;;;7.90;5.80;;;;;;;6.06;99.83;96810.70;110470;1241;60488;-65
2023/11/14 05:32:41;;;;;;;10.10;6.40;;;;;;;6.09;99.95;96804.78;110435;1242;71395;-65
2023/11/14 05:35:12;;;;;;;9.90;7.70;;;;;;;6.11;100.00;96813.16;110294;1242;69832;-65
2023/11/14 05:37:42;;;;;;;6.60;5.60;;;;;;;6.15;100.00;96810.34;110290;1244;68520;-66
2023/11/14 05:40:12;;;;;;;11.00;9.60;;;;;;;6.17;100.00;96796.91;110372;1243;60549;-65
2023/11/14 05:42:42;;;;;;;10.90;9.00;;;;;;;6.18;100.00;96800.08;110280;1240;60494;-66
2023/11/14 05:45:13;;;;;;;10.20;8.20;;;;;;;6.20;100.00;96800.98;110328;1243;72885;-65
2023/11/14 05:47:43;;;;;;;9.20;7.60;;;;;;;6.23;100.00;96795.46;110441;1241;69077;-66
2023/11/14 05:50:13;;;;;;;10.90;8.70;;;;;;;6.27;100.00;96800.90;110328;1241;68323;-64
2023/11/14 05:52:43;;;;;;;8.90;7.00;;;;;;;6.28;100.00;96803.73;110445;1241;60547;-66
2023/11/14 05:55:13;;;;;;;8.60;7.00;;;;;;;6.31;100.00;96812.19;110404;1241;60470;-64
2023/11/14 05:57:44;;;;;;;12.80;8.30;;;;;;;6.35;100.00;96810.02;110381;1241;72211;-65
2023/11/14 06:00:15;;;;;;;;;;;;;;;6.41;100.00;96809.17;110327;1239;68408;-65
2023/11/14 06:02:46;;;;;;;11.50;7.80;;;;;;;6.45;100.00;96813.87;110326;1242;68452;-64
2023/11/14 06:05:17;;;;;;;13.70;9.80;;;;;;;6.50;100.00;96819.11;110264;1241;60486;-65
2023/11/14 06:07:46;;;;;;;11.70;8.80;;;;;;;6.55;100.00;96819.44;110332;1241;60613;-64
2023/11/14 06:10:16;;;;;;;9.30;8.20;;;;;;;6.60;100.00;96809.60;110298;1241;72224;-64
2023/11/14 06:12:46;;;;;;;;;;;;;;;6.67;100.00;96803.08;110428;1241;69160;-64
2023/11/14 06:15:16;;;;;;;8.90;7.00;;;;;;;6.70;100.00;96808.59;110317;1241;69756;-64
2023/11/14 06:17:46;;;;;;;12.90;9.10;;;;;;;6.76;100.00;96806.84;110306;1244;60832;-64
2023/11/14 06:20:15;;;;;;;10.90;7.60;;;;;;;6.81;100.00;96795.41;110439;1241;60498;-64
2023/11/14 06:22:46;;;;;;;11.40;8.00;;;;;;;6.88;100.00;96796.34;110415;1242;72236;-64
2023/11/14 06:25:16;;;;;;;9.80;7.50;;;;;;;6.95;100.00;96787.52;110572;1241;69212;-64
2023/11/14 06:27:46;;;;;;;10.50;7.70;;;;;;;7.02;100.00;96780.30;110249;1240;68532;-64
2023/11/14 06:30:16;;;;;;;8.10;6.30;;;;;;;7.09;100.00;96778.23;110295;1241;60522;-65
2023/11/14 06:32:46;;;;;;;6.60;5.50;;;;;;;7.15;99.99;96772.61;110432;1242;60485;-65
2023/11/14 06:35:16;;;;;;;6.70;5.30;;;;;;;7.23;100.00;96765.67;110295;1243;72790;-67
2023/11/14 06:37:46;;;;;;;;;;;;;;;7.30;99.99;96767.23;110280;1244;69083;-66
2023/11/14 06:40:17;;;;;;;9.90;6.50;;;;;;;7.43;100.00;96767.71;110263;1244;69244;-66
2023/11/14 06:42:46;;;;;;;7.10;5.90;;;;;;;7.57;100.00;96771.40;110228;1240;60505;-65
2023/11/14 06:45:15;;;;;;;7.90;6.00;;;;;;;7.73;100.00;96760.44;110341;1242;60433;-66
2023/11/14 06:47:45;;;;;;;7.60;6.00;;;;;;;7.86;99.65;96752.34;110326;1241;72111;-65
2023/11/14 06:50:15;;;;;;;8.20;5.90;;;;;;;8.00;99.14;96753.95;110259;1242;69800;-65
2023/11/14 06:53:01;;;;;;;10.00;7.00;;;;;;;8.38;99.68;96752.72;110503;1242;69529;-67
2023/11/14 06:55:31;;;;;;;;;;;;;;;8.94;98.32;96745.89;110366;1247;60510;-65
2023/11/14 06:58:01;;;;;;;6.90;5.00;;;;;;;9.33;99.73;96746.52;110395;1240;60479;-65
2023/11/14 07:00:31;;;;;;;;;;;;;;;9.57;97.92;96748.15;110448;1239;72173;-65
2023/11/14 07:03:00;;;;;;;5.70;4.30;;;;;;;9.70;97.78;96756.27;110361;1243;69845;-65
2023/11/14 07:05:30;;;;;;;5.70;4.20;;;;;;;9.77;96.74;96764.29;110181;1242;69880;-65
2023/11/14 07:08:02;;;;;;;5.00;3.50;;;;;;;9.80;95.67;96766.08;110269;1242;60507;-64
2023/11/14 07:10:32;;;;;;;4.90;3.60;;;;;;;9.81;92.92;96763.66;110322;1241;60464;-65
2023/11/14 07:13:02;;;;;;;7.50;6.30;;;;;;;9.81;92.46;96770.21;110298;1241;71330;-65
2023/11/14 07:15:32;;;;;;;5.60;5.00;;;;;;;9.81;92.28;96769.68;110380;1241;68575;-67
2023/11/14 07:18:08;;;;;;;5.80;4.50;;;;;;;9.79;92.75;96774.52;110439;1241;69277;-66
2023/11/14 07:20:39;;;;;;;5.60;4.70;;;;;;;9.78;92.53;96772.77;110405;1242;60514;-65
2023/11/14 07:23:11;;;;;;;;;;;;;;;9.75;91.74;96768.08;110463;1242;60530;-65
2023/11/14 07:25:45;;;;;;;6.50;4.20;;;;;;;9.72;92.01;96764.48;110421;1241;72183;-64
2023/11/14 07:28:15;;;;;;;5.80;3.70;;;;;;;9.69;91.21;96764.17;110495;1242;69220;-65
2023/11/14 07:30:44;;;;;;;6.50;3.60;;;;;;;9.69;91.05;96760.16;110403;1244;69093;-65
2023/11/14 07:33:14;;;;;;;5.60;3.50;;;;;;;9.73;90.67;96756.30;110365;1243;60490;-65
2023/11/14 07:35:44;;;;;;;5.40;3.40;;;;;;;9.76;90.51;96758.46;110236;1241;60474;-65
2023/11/14 07:38:13;;;;;;;5.60;3.50;;;;;;;9.81;90.84;96758.89;110284;1242;72788;-67
2023/11/14 07:40:42;;;;;;;4.90;3.50;;;;;;;9.86;90.22;96763.93;110549;1239;69823;-64
2023/11/14 07:43:12;;;;;;;4.30;3.40;;;;;;;9.90;90.39;96765.45;110511;1241;68741;-65
2023/11/14 07:45:42;;;;;;;4.90;3.80;;;;;;;9.97;90.37;96770.82;110338;1241;60561;-65
2023/11/14 07:48:13;;;;;;;5.00;3.50;;;;;;;10.02;89.83;96774.80;110269;1242;60533;-64
2023/11/14 07:50:43;;;;;;;5.40;3.30;;;;;;;10.06;89.95;96771.21;110268;1242;70768;-67
2023/11/14 07:53:12;;;;;;;7.20;4.20;;;;;;;10.09;89.83;96773.69;110259;1243;70250;-67
2023/11/14 07:55:43;;;;;;;;;;;;;;;10.12;89.77;96769.07;110397;1242;70014;-65
2023/11/14 07:58:13;;;;;;;5.90;3.60;;;;;;;10.18;89.96;96765.11;110354;1246;60547;-65
2023/11/14 08:00:42;;;;;;;4.30;3.20;;;;;;;10.28;89.93;96751.67;110305;1241;60468;-66
2023/11/14 08:03:12;;;;;;;5.80;3.70;;;;;;;10.41;89.78;96745.49;110260;1244;72886;-65
2023/11/14 08:05:41;;;;;;;;;;;;;;;10.65;89.61;96741.27;110296;1242;69478;-65
2023/11/14 08:08:11;;;;;;;5.80;3.60;;;;;;;11.01;89.22;96737.18;110272;1242;69887;-65
2023/11/14 08:10:40;;;;;;;4.50;3.00;;;;;;;11.42;85.83;96728.05;110429;1240;60483;-65
2023/11/14 08:13:10;;;;;;;5.60;3.30;;;;;;;11.89;86.16;96727.48;110369;1242;60499;-65
2023/11/14 08:15:39;;;;;;;5.50;3.40;;;;;;;12.34;87.65;96732.65;110409;1242;71268;-65
2023/11/14 08:18:10;;;;;;;4.10;3.00;;;;;;;12.76;86.76;96731.97;110398;1241;69245;-65
2023/11/14 08:20:39;;;;;;;4.00;2.40;;;;;;;13.12;79.33;96743.32;110291;1241;68506;-66
2023/11/14 08:23:09;;;;;;;;;;;;;;;13.56;80.22;96757.39;110285;1241;60570;-65
2023/11/14 08:25:39;;;;;;;4.40;3.10;;;;;;;13.70;78.50;96759.55;110285;1242;60451;-66
2023/11/14 08:28:09;;;;;;;5.50;3.20;;;;;;;13.70;73.69;96759.33;110331;1242;73064;-66
2023/11/14 08:30:38;;;;;;;5.10;2.90;;;;;;;13.62;73.12;96762.25;110480;1249;69733;-65
2023/11/14 08:33:09;;;;;;;5.50;3.60;;;;;;;13.67;76.74;96757.90;110478;1242;69266;-66
2023/11/14 08:35:39;;;;;;;6.10;3.70;;;;;;;13.55;74.64;96755.70;110436;1241;60535;-65
2023/11/14 08:38:08;;;;;;;3.70;2.60;;;;;;;13.39;75.13;96746.55;110409;1241;60902;-64
2023/11/14 08:40:49;;;;;;;4.10;3.20;;;;;;;13.39;76.12;96740.84;110388;1242;72427;-64
2023/11/14 08:43:18;;;;;;;4.10;2.70;;;;;;;13.42;75.54;96737.72;110386;1249;69758;-65
2023/11/14 08:45:48;;;;;;;5.80;2.90;;;;;;;13.48;75.64;96732.93;110291;1242;69299;-67
2023/11/14 08:48:18;;;;;;;4.50;3.00;;;;;;;13.50;75.42;96724.16;110425;1241;60407;-64
2023/11/14 08:50:49;;;;;;;4.10;2.80;;;;;;;13.62;74.73;96713.21;110298;1240;60505;-64
2023/11/14 08:53:22;;;;;;;5.40;3.10;;;;;;;13.88;73.17;96714.92;110530;1242;72686;-64
2023/11/14 08:55:53;;;;;;;6.30;3.30;;;;;;;14.36;70.57;96708.66;110310;1242;68365;-65
2023/11/14 08:58:23;;;;;;;5.60;3.10;;;;;;;14.95;71.23;96717.13;110269;1249;69337;-64
2023/11/14 09:00:55;;;;;;;5.50;2.80;;;;;;;15.14;69.52;96732.70;110242;1243;60544;-65
2023/11/14 09:03:24;;;;;;;4.80;2.60;;;;;;;15.05;68.86;96738.38;110361;1242;60511;-64
2023/11/14 09:05:53;;;;;;;5.20;3.10;;;;;;;15.11;68.12;96735.31;110266;1249;72801;-64
2023/11/14 09:08:22;;;;;;;3.80;2.50;;;;;;;15.27;67.89;96736.79;110298;1243;69816;-65
2023/11/14 09:10:52;;;;;;;3.90;3.00;;;;;;;15.21;66.83;96740.94;110251;1243;69890;-63
2023/11/14 09:13:21;;;;;;;3.60;2.60;;;;;;;14.78;67.39;96741.46;110262;1241;60501;-65
2023/11/14 09:15:50;;;;;;;5.60;3.30;;;;;;;14.59;68.42;96743.55;110259;1242;60468;-63
2023/11/14 09:18:23;;;;;;;4.30;2.90;;;;;;;14.57;68.89;96728.78;110204;1243;72760;-63
2023/11/14 09:20:53;;;;;;;4.00;2.80;;;;;;;14.49;69.55;96716.31;109776;1242;582695;-64
2023/11/14 09:23:22;;;;;;;;;;;;;;;14.63;69.24;96722.45;110290;1248;69236;-64
2023/11/14 09:25:51;;;;;;;4.80;2.80;;;;;;;14.51;69.68;96725.76;110297;1242;60502;-63
2023/11/14 09:28:21;;;;;;;4.20;2.30;;;;;;;14.56;70.22;96720.17;110230;1249;60481;-65
2023/11/14 09:30:50;;;;;;;6.10;3.30;;;;;;;14.65;70.79;96731.73;110084;1243;72322;-65
2023/11/14 09:33:20;;;;;;;6.50;3.50;;;;;;;14.59;71.47;96733.20;110280;1241;68413;-64
2023/11/14 09:35:49;;;;;;;6.40;4.40;;;;;;;14.57;71.01;96720.97;110269;1247;68524;-63
2023/11/14 09:38:18;;;;;;;8.50;4.70;;;;;;;14.39;72.18;96713.06;110244;1240;60969;-64
2023/11/14 09:40:48;;;;;;;;;;;;;;;14.39;72.97;96711.48;110284;1241;60487;-65
2023/11/14 09:43:22;;;;;;;16.30;9.70;;;;;;;14.19;73.37;96706.95;110275;1242;72054;-66
2023/11/14 09:45:53;;;;;;;16.60;10.60;;;;;;;13.91;75.64;96710.40;110263;1243;69914;-63
2023/11/14 09:48:22;;;;;;;16.10;10.40;;;;;;;13.94;76.09;96710.45;110132;1245;70304;-66
2023/11/14 09:50:55;;;;;;;19.40;12.20;;;;;;;13.73;77.54;96701.17;110230;1242;60573;-65
2023/11/14 09:53:28;;;;;;;21.50;13.50;;;;;;;13.61;78.73;96686.68;110230;1244;60919;-65
2023/11/14 09:55:59;;;;;;;20.70;12.40;;;;;;;13.34;81.14;96680.79;110294;1240;72230;-65
2023/11/14 09:58:28;;;;;;;21.40;13.40;;;;;;;13.26;81.59;96686.89;110246;1242;69603;-64
2023/11/14 10:01:00;;;;;;;23.10;13.30;;;;;;;13.29;82.79;96669.66;110270;1242;69979;-64
2023/11/14 10:03:29;;;;;;;17.80;11.70;;;;;;;13.53;82.90;96666.13;110277;1240;60471;-64
2023/11/14 10:05:59;;;;;;;21.60;14.50;;;;;;;13.70;82.77;96660.57;110280;1242;60424;-64
2023/11/14 10:08:30;;;;;;;23.20;14.90;;;;;;;13.67;84.10;96656.02;110254;1243;72042;-64
2023/11/14 10:11:10;;;;;;;18.60;11.70;;;;;;;13.72;84.69;96659.41;110338;1245;69241;-64
2023/11/14 10:13:40;;;;;;;25.40;15.20;;;;;;;13.69;84.19;96662.27;110284;1246;68895;-64
2023/11/14 10:16:18;;;;;;;25.90;14.60;;;;;;;13.58;85.78;96657.23;110265;1242;60540;-64
2023/11/14 10:18:50;;;;;;;20.70;14.50;;;;;;;13.65;85.49;96657.77;110275;1242;60425;-67
2023/11/14 10:21:31;;;;;;;22.50;15.10;;;;;;;13.55;87.30;96656.86;110325;1242;70592;-65
2023/11/14 10:24:11;;;;;;;18.90;12.70;;;;;;;13.57;86.86;96649.63;110224;1249;69304;-65
2023/11/14 10:26:51;;;;;;;20.80;13.30;;;;;;;13.58;87.38;96650.05;110243;1242;69174;-65
2023/11/14 10:29:21;;;;;;;;;;;;;;;13.57;87.34;96644.58;110300;1243;60510;-64
2023/11/14 10:31:51;;;;;;;;;;;;;;;13.55;87.12;96646.48;110309;1241;60611;-65
2023/11/14 10:55:47;;;;;;;5.10;3.10;;;;;;;14.14;83.89;96641.70;107345;1272;609262;-65
2023/11/14 10:58:22;;;;;;;4.60;3.40;;;;;;;14.15;83.28;96649.41;108968;1251;383810;-64
2023/11/14 11:00:51;;;;;;;4.20;2.90;;;;;;;14.14;83.48;96648.39;109325;1254;58348;-64
2023/11/14 11:03:21;;;;;;;8.20;7.30;;;;;;;14.15;85.17;96641.16;109281;1253;68790;-65
2023/11/14 11:05:50;;;;;;;15.60;12.10;;;;;;;13.98;92.60;96643.68;109284;1251;68264;-64
2023/11/14 11:08:22;;;;;;;14.30;12.80;;;;;;;13.82;91.93;96659.30;109323;1254;69738;-64
2023/11/14 11:10:52;;;;;;;12.40;11.20;;;;;;;13.75;91.39;96658.94;109247;1254;57772;-64
2023/11/14 11:13:26;;;;;;;11.40;10.10;;;;;;;13.57;91.62;96648.05;109325;1254;57699;-62
2023/11/14 11:15:56;;;;;;;13.00;9.90;;;;;;;13.27;95.47;96639.35;109295;1254;68798;-64
2023/11/14 11:18:38;;;;;;;10.50;9.00;;;;;;;13.06;99.52;96630.02;109533;1251;69318;-64
2023/11/14 11:21:13;;;;;;;10.00;8.40;;;;;;;13.17;95.77;96628.60;109552;1248;69205;-64
2023/11/14 11:24:04;;;;;;;9.00;7.40;;;;;;;13.29;94.75;96627.91;109538;1247;58126;-66
2023/11/14 11:27:05;;;;;;;10.60;8.30;;;;;;;13.74;97.07;96629.45;109501;1251;58449;-63
2023/11/14 11:29:54;;;;;;;8.70;7.80;;;;;;;14.35;93.99;96630.05;109590;1248;69634;-63
2023/11/14 11:32:32;;;;;;;8.20;7.00;;;;;;;14.99;92.31;96619.45;109582;1250;69347;-64
2023/11/14 11:35:21;;;;;;;7.20;6.50;;;;;;;15.91;89.63;96610.90;109559;1250;69053;-65
2023/11/14 11:37:52;;;;;;;6.80;6.10;;;;;;;16.57;83.54;96604.06;109557;1248;58119;-64
2023/11/14 11:40:32;;;;;;;7.80;5.70;;;;;;;17.08;81.28;96607.35;109568;1251;58865;-64
2023/11/14 11:43:10;;;;;;;12.00;9.20;;;;;;;18.07;75.91;96584.33;109595;1251;69726;-63
2023/11/14 11:45:41;;;;;;;8.50;7.00;;;;;;;18.75;72.31;96589.56;109624;1250;69413;-64
2023/11/14 11:48:35;;;;;;;7.90;6.60;;;;;;;19.24;74.53;96598.41;109574;1251;69310;-64
2023/11/14 11:51:34;;;;;;;7.30;6.00;;;;;;;18.93;67.69;96609.44;109554;1247;58115;-64
2023/11/14 11:54:28;;;;;;;6.10;5.40;;;;;;;18.27;66.42;96625.02;110151;1242;58122;-64
2023/11/14 11:57:04;;;;;;;8.30;5.20;;;;;;;17.75;70.66;96621.64;110372;1241;68979;-64
2023/11/14 11:59:54;;;;;;;11.10;9.80;;;;;;;17.39;72.57;96639.33;110253;1241;69962;-64
2023/11/14 12:02:23;;;;;;;12.70;10.50;;;;;;;16.40;76.61;96654.11;110294;1241;69853;-64
2023/11/14 12:04:55;;;;;;;13.40;11.00;;;;;;;15.61;80.44;96667.83;110274;1241;58525;-63
2023/11/14 12:07:26;;;;;;;11.60;9.30;;;;;;;15.07;82.65;96643.55;110278;1240;58118;-64
2023/11/14 12:09:56;;;;;;;9.80;8.20;;;;;;;14.69;85.69;96656.42;110320;1240;69780;-65
2023/11/14 12:12:29;;;;;;;9.70;8.20;;;;;;;14.45;87.70;96662.33;110438;1241;69092;-65